Tuesday, January 15, 2019, 5:44 PM CST
Back to Local

KMDW, Chicago Midway Airport

Location: Chicago, IL, United States Lat: 41.783
Local Time: 5:44 PM CST (23:44 GMT) Lon: -87.75
Time Zone: US/Central Elev: 620 ft

Show me the last for .
Show Decoded

2019-01-15 16:53 METAR KMDW 152253Z 25015G24KT 7SM OVC008 M02/M04 A3007 RMK AO2 SLP196 T10221039
                 =
2019-01-15 16:20 METAR KMDW 152220Z 23015G24KT 7SM OVC009 M02/M04 A3008 RMK AO2 T10221039 =
2019-01-15 15:53 METAR KMDW 152153Z 25014G27KT 9SM OVC011 M02/M04 A3009 RMK AO2 PK WND 25027/2153
                 SLP203 T10221044 =
2019-01-15 14:53 METAR KMDW 152053Z 24014G21KT 10SM OVC011 M02/M04 A3009 RMK AO2 SLP204 T10221044
                 56023 =
2019-01-15 13:53 METAR KMDW 151953Z 24016KT 10SM OVC011 M02/M05 A3011 RMK AO2 SLP211 T10221050 =
2019-01-15 12:53 METAR KMDW 151853Z 25012G20KT 8SM OVC012 M02/M05 A3013 RMK AO2 SLP216 T10221050
                 =
2019-01-15 11:53 METAR KMDW 151753Z 25013G21KT 10SM OVC014 M03/M06 A3016 RMK AO2 SLP228 4/003
                 T10281056 11022 21033 58015 =
2019-01-15 10:53 METAR KMDW 151653Z 23011KT 10SM OVC014 M03/M06 A3020 RMK AO2 SLP240 T10281056 =
2019-01-15 10:12 METAR KMDW 151612Z 22010KT 8SM OVC014 M03/M06 A3022 RMK AO2 T10281056 =
2019-01-15 09:53 METAR KMDW 151553Z 23010KT 8SM OVC015 M03/M06 A3022 RMK AO2 SLP248 T10281056 =
2019-01-15 08:53 METAR KMDW 151453Z 24009KT 6SM BR FEW010 OVC018 M03/M06 A3021 RMK AO2 SLP243
                 T10281056 55003 =
2019-01-15 07:53 METAR KMDW 151353Z 24009KT 6SM BR FEW010 OVC018 M03/M06 A3020 RMK AO2 SLP242
                 T10331056 =
2019-01-15 07:16 METAR KMDW 151316Z 25009KT 5SM BR SCT010 OVC020 M03/M06 A3020 RMK AO2 T10331056
                 =
2019-01-15 06:53 METAR KMDW 151253Z 25008KT 5SM BR BKN010 OVC021 M03/M06 A3021 RMK AO2 SLP244
                 T10331056 =
2019-01-15 05:53 METAR KMDW 151153Z 25010KT 5SM BR BKN010 OVC021 M03/M06 A3022 RMK AO2 SLP246
                 4/003 60000 I6000 T10331056 11033 21039 56009 =
2019-01-15 05:27 METAR KMDW 151127Z 25008KT 5SM BR BKN010 OVC020 M03/M06 A3022 RMK AO2 T10331056
                 =
2019-01-15 04:53 METAR KMDW 151053Z 27010KT 5SM BR BKN009 OVC013 M03/M06 A3022 RMK AO2 SLP248
                 T10331056 =
2019-01-15 03:53 METAR KMDW 150953Z 27009KT 5SM BR OVC008 M03/M06 A3023 RMK AO2 FZDZE35 SLP250
                 P0000 I1000 T10331056 =
2019-01-15 03:36 METAR KMDW 150936Z 26009KT 5SM BR OVC008 M03/M05 A3023 RMK AO2 FZDZE35 P0000
                 I1000 T10331050 =
2019-01-15 02:53 METAR KMDW 150853Z 27009KT 4SM -FZDZ BR BKN009 OVC014 M03/M06 A3024 RMK AO2
                 SLP255 P0000 60000 I1000 I3000 T10331056 51006 =
2019-01-15 02:09 METAR KMDW 150809Z 27009KT 4SM -FZDZ BR OVC009 M03/M06 A3024 RMK AO2 P0000 I1000
                 T10331056 =
2019-01-15 01:53 METAR KMDW 150753Z 26010KT 4SM -FZDZ BR OVC010 M03/M06 A3024 RMK AO2 FZDZE14B46
                 SLP253 P0000 I1000 T10331056 =
2019-01-15 01:14 METAR KMDW 150714Z 25005KT 5SM BR SCT008 OVC015 M03/M06 A3022 RMK AO2 FZDZE14
                 P0000 I1000 T10331056 =
2019-01-15 00:53 METAR KMDW 150653Z 27006KT 4SM -FZDZ BR OVC008 M03/M05 A3022 RMK AO2 SLP250
                 P0000 I1000 T10331050 =
2019-01-14 23:53 METAR KMDW 150553Z 28011KT 3SM -FZDZ BR OVC009 M04/M06 A3025 RMK AO2
                 FZDZB52SNB0458E52 SLP258 4/003 P0000 60000 I1000 I6000 T10391056 11033 21044
                 410221061 58009 =
2019-01-14 23:09 METAR KMDW 150509Z 28009KT 4SM -SN BR OVC010 M04/M06 A3027 RMK AO2 SNB0458 P0000
                 T10391061 =
2019-01-14 22:53 METAR KMDW 150453Z 26010KT 4SM BR OVC009 M04/M06 A3026 RMK AO2 SLP263 T10391061
                 =
2019-01-14 21:53 METAR KMDW 150353Z 26010KT 5SM BR OVC009 M04/M06 A3027 RMK AO2 SLP265 T10441061
                 =
2019-01-14 21:18 METAR KMDW 150318Z 26013KT 5SM BR OVC009 M04/M07 A3028 RMK AO2 T10441067 =
2019-01-14 20:53 METAR KMDW 150253Z 25011G18KT 5SM BR OVC010 M04/M07 A3027 RMK AO2 SLP267
                 T10441067 58003 =
2019-01-14 19:53 METAR KMDW 150153Z 25012KT 6SM HZ OVC011 M04/M07 A3027 RMK AO2 SLP268 T10391067
                 =
2019-01-14 18:53 METAR KMDW 150053Z 23010KT 8SM OVC014 M03/M06 A3029 RMK AO2 SLP270 T10331061 =
2019-01-14 17:53 METAR KMDW 142353Z 24012KT 7SM OVC014 M03/M07 A3029 RMK AO2 SLP271 4/003
                 T10331067 11022 21033 53002 =

Support USWX by starting your Amazon purchase here.